createdAt,value
2019-03-21T00:02:27.352Z,2.90
2019-03-21T00:04:56.911Z,2.47
2019-03-21T00:07:28.033Z,2.77
2019-03-21T00:10:29.348Z,2.50
2019-03-21T00:12:58.836Z,2.73
2019-03-21T00:15:44.195Z,2.77
2019-03-21T00:18:17.418Z,2.53
2019-03-21T00:20:46.871Z,2.60
2019-03-21T00:23:16.375Z,2.77
2019-03-21T00:25:45.839Z,2.60
2019-03-21T00:28:15.324Z,3.00
2019-03-21T00:30:44.804Z,2.67
2019-03-21T00:33:14.289Z,2.57
2019-03-21T00:35:43.778Z,2.77
2019-03-21T00:38:13.310Z,3.07
2019-03-21T00:40:47.354Z,3.43
2019-03-21T00:43:16.970Z,3.40
2019-03-21T00:45:46.468Z,3.07
2019-03-21T00:48:20.243Z,3.17
2019-03-21T00:50:49.857Z,3.47
2019-03-21T00:53:19.329Z,3.30
2019-03-21T00:55:56.169Z,3.47
2019-03-21T00:58:25.746Z,3.20
2019-03-21T01:01:05.233Z,3.70
2019-03-21T01:03:34.728Z,3.03
2019-03-21T01:06:04.496Z,3.60
2019-03-21T01:08:33.999Z,4.00
2019-03-21T01:11:03.526Z,4.77
2019-03-21T01:13:39.031Z,4.17
2019-03-21T01:16:08.570Z,4.10
2019-03-21T01:18:42.554Z,4.50
2019-03-21T01:21:12.013Z,4.60
2019-03-21T01:23:41.555Z,4.80
2019-03-21T01:26:13.553Z,4.93
2019-03-21T01:28:43.083Z,4.27
2019-03-21T01:31:12.569Z,3.93
2019-03-21T01:33:42.038Z,5.00
2019-03-21T01:36:11.525Z,4.80
2019-03-21T01:38:40.984Z,5.30
2019-03-21T01:41:19.471Z,4.87
2019-03-21T01:43:48.940Z,5.23
2019-03-21T01:46:25.130Z,4.67
2019-03-21T01:48:54.635Z,4.40
2019-03-21T01:51:24.219Z,4.10
2019-03-21T01:53:55.490Z,3.87
2019-03-21T01:56:26.318Z,4.90
2019-03-21T01:58:55.860Z,4.00
2019-03-21T02:01:25.351Z,4.97
2019-03-21T02:03:54.843Z,4.93
2019-03-21T02:06:24.312Z,4.97
2019-03-21T02:08:53.950Z,4.60
2019-03-21T02:11:23.421Z,4.87
2019-03-21T02:13:52.896Z,5.30
2019-03-21T02:16:22.390Z,5.00
2019-03-21T02:18:51.860Z,4.67
2019-03-21T02:21:21.325Z,4.77
2019-03-21T02:23:50.881Z,5.20
2019-03-21T02:26:20.377Z,5.07
2019-03-21T02:28:49.898Z,4.27
2019-03-21T02:31:19.347Z,5.17
2019-03-21T02:33:48.883Z,5.87
2019-03-21T02:36:18.394Z,6.20
2019-03-21T02:38:47.884Z,5.53
2019-03-21T02:41:18.049Z,5.63
2019-03-21T02:43:47.581Z,5.70
2019-03-21T02:46:17.097Z,5.83
2019-03-21T02:48:46.666Z,5.87
2019-03-21T02:51:16.127Z,5.27
2019-03-21T02:53:45.635Z,5.13
2019-03-21T02:56:20.045Z,6.07
2019-03-21T02:58:49.671Z,5.40
2019-03-21T03:01:19.156Z,5.50
2019-03-21T03:03:48.664Z,5.07
2019-03-21T03:06:18.166Z,5.87
2019-03-21T03:08:47.628Z,6.37
2019-03-21T03:11:23.278Z,5.93
2019-03-21T03:13:52.978Z,5.93
2019-03-21T03:16:24.293Z,5.77
2019-03-21T03:18:53.782Z,5.97
2019-03-21T03:21:23.243Z,5.60
2019-03-21T03:23:52.722Z,5.67
2019-03-21T03:26:22.207Z,5.70
2019-03-21T03:28:51.678Z,5.50
2019-03-21T03:31:21.238Z,5.90
2019-03-21T03:33:50.760Z,5.87
2019-03-21T03:36:20.326Z,5.73
2019-03-21T03:38:49.794Z,5.30
2019-03-21T03:41:21.601Z,5.20
2019-03-21T03:43:51.138Z,5.57
2019-03-21T03:46:20.633Z,5.20
2019-03-21T03:48:50.100Z,5.10
2019-03-21T03:51:19.608Z,5.10
2019-03-21T03:53:49.084Z,6.30
2019-03-21T03:56:18.646Z,6.17
2019-03-21T03:58:55.539Z,6.40
2019-03-21T04:01:25.093Z,5.47
2019-03-21T04:03:54.632Z,7.00
2019-03-21T04:06:24.180Z,5.93
2019-03-21T04:08:53.724Z,5.60
2019-03-21T04:11:23.649Z,5.87
2019-03-21T04:13:53.132Z,5.40
2019-03-21T04:16:22.644Z,5.83
2019-03-21T04:18:52.202Z,6.30
2019-03-21T04:21:21.698Z,6.03
2019-03-21T04:23:51.181Z,6.37
2019-03-21T04:26:36.446Z,6.37
2019-03-21T04:29:05.979Z,5.60
2019-03-21T04:31:35.448Z,5.87
2019-03-21T04:34:09.663Z,5.53
2019-03-21T04:36:39.146Z,6.37
2019-03-21T04:39:10.461Z,6.50
2019-03-21T04:41:42.926Z,6.07
2019-03-21T04:44:12.421Z,6.63
2019-03-21T04:46:41.879Z,6.43
2019-03-21T04:49:11.362Z,5.53
2019-03-21T04:51:40.894Z,6.70
2019-03-21T04:54:10.359Z,8.27
2019-03-21T04:56:39.846Z,7.07
2019-03-21T04:59:09.305Z,7.10
2019-03-21T05:01:58.147Z,7.27
2019-03-21T05:04:27.675Z,6.90
2019-03-21T05:06:59.489Z,5.97
2019-03-21T05:09:28.994Z,7.40
2019-03-21T05:11:58.512Z,6.67
2019-03-21T05:14:27.967Z,5.93
2019-03-21T05:16:57.448Z,5.70
2019-03-21T05:19:26.911Z,5.73
2019-03-21T05:21:56.408Z,6.07
2019-03-21T05:24:25.900Z,6.87
2019-03-21T05:26:55.381Z,6.03
2019-03-21T05:29:24.879Z,6.63
2019-03-21T05:31:54.363Z,6.83
2019-03-21T05:34:23.861Z,6.77
2019-03-21T05:36:53.375Z,5.60
2019-03-21T05:39:22.890Z,5.67
2019-03-21T05:41:52.399Z,6.00
2019-03-21T05:44:30.874Z,5.93
2019-03-21T05:47:00.472Z,5.60
2019-03-21T05:49:29.926Z,5.53
2019-03-21T05:51:59.412Z,5.17
2019-03-21T05:54:28.902Z,5.83
2019-03-21T05:56:58.371Z,4.87
2019-03-21T05:59:27.861Z,5.10
2019-03-21T06:01:57.390Z,5.13
2019-03-21T06:04:26.880Z,4.77
2019-03-21T06:07:06.650Z,5.10
2019-03-21T06:09:36.145Z,5.00
2019-03-21T06:12:07.619Z,5.17
2019-03-21T06:14:44.735Z,5.43
2019-03-21T06:17:14.201Z,5.47
2019-03-21T06:19:56.913Z,4.70
2019-03-21T06:23:01.039Z,5.80
2019-03-21T06:25:47.212Z,5.20
2019-03-21T06:28:16.715Z,4.90
2019-03-21T06:30:46.182Z,5.43
2019-03-21T06:33:15.669Z,4.93
2019-03-21T06:35:45.161Z,4.90
2019-03-21T06:38:14.695Z,5.60
2019-03-21T06:40:44.194Z,5.93
2019-03-21T06:43:13.657Z,5.33
2019-03-21T06:45:47.977Z,5.23
2019-03-21T06:48:14.410Z,6.30
2019-03-21T06:50:43.891Z,5.33
2019-03-21T06:53:13.351Z,5.73
2019-03-21T06:55:42.841Z,5.67
2019-03-21T06:58:12.322Z,6.00
2019-03-21T07:00:41.954Z,5.67
2019-03-21T07:03:11.453Z,6.40
2019-03-21T07:05:41.006Z,6.13
2019-03-21T07:08:10.485Z,6.20
2019-03-21T07:10:40.017Z,6.37
2019-03-21T07:13:09.593Z,5.43
2019-03-21T07:15:39.040Z,6.37
2019-03-21T07:18:08.530Z,6.17
2019-03-21T07:20:38.069Z,6.40
2019-03-21T07:23:07.568Z,6.73
2019-03-21T07:25:37.043Z,6.07
2019-03-21T07:28:06.496Z,5.17
2019-03-21T07:30:35.997Z,6.63
2019-03-21T07:33:05.818Z,6.30
2019-03-21T07:35:35.320Z,6.03
2019-03-21T07:38:04.917Z,6.17
2019-03-21T07:40:34.417Z,6.53
2019-03-21T07:43:03.943Z,6.63
2019-03-21T07:45:33.449Z,6.37
2019-03-21T07:48:05.097Z,6.57
2019-03-21T07:50:34.156Z,6.87
2019-03-21T07:53:03.706Z,6.50
2019-03-21T07:55:33.293Z,6.07
2019-03-21T07:58:02.757Z,6.50
2019-03-21T08:00:32.248Z,7.17
2019-03-21T08:03:01.712Z,6.70
2019-03-21T08:05:39.821Z,6.50
2019-03-21T08:08:02.406Z,6.30
2019-03-21T08:10:31.976Z,7.20
2019-03-21T08:13:01.463Z,7.07
2019-03-21T08:15:30.952Z,6.90
2019-03-21T08:18:00.408Z,6.23
2019-03-21T08:20:29.907Z,7.40
2019-03-21T08:22:59.387Z,6.80
2019-03-21T08:25:28.899Z,7.20
2019-03-21T08:27:58.368Z,7.00
2019-03-21T08:30:32.586Z,7.03
2019-03-21T08:33:03.170Z,6.20
2019-03-21T08:35:32.781Z,6.53
2019-03-21T08:38:02.421Z,6.43
2019-03-21T08:40:32.047Z,6.73
2019-03-21T08:43:01.587Z,6.77
2019-03-21T08:45:31.090Z,6.60
2019-03-21T08:48:00.596Z,6.77
2019-03-21T08:50:30.089Z,6.63
2019-03-21T08:52:59.699Z,6.77
2019-03-21T08:55:29.166Z,7.10
2019-03-21T08:57:58.678Z,7.27
2019-03-21T09:00:33.999Z,7.00
2019-03-21T09:02:59.536Z,6.73
2019-03-21T09:05:28.991Z,7.37
2019-03-21T09:07:58.480Z,6.87
2019-03-21T09:10:27.950Z,7.27
2019-03-21T09:12:57.440Z,7.83
2019-03-21T09:15:26.988Z,6.73
2019-03-21T09:17:56.492Z,6.97
2019-03-21T09:20:25.982Z,6.47
2019-03-21T09:22:55.437Z,6.70
2019-03-21T09:25:25.031Z,6.03
2019-03-21T09:28:02.670Z,6.23
2019-03-21T09:30:25.711Z,5.93
2019-03-21T09:32:55.220Z,5.73
2019-03-21T09:35:24.678Z,5.67
2019-03-21T09:37:54.191Z,5.20
2019-03-21T09:40:23.720Z,5.67
2019-03-21T09:42:53.282Z,5.53
2019-03-21T09:45:22.751Z,5.70
2019-03-21T09:47:52.240Z,4.90
2019-03-21T09:50:31.183Z,5.10
2019-03-21T09:53:00.827Z,4.60
2019-03-21T09:55:30.359Z,4.53
2019-03-21T09:57:59.842Z,4.17
2019-03-21T10:00:34.742Z,4.33
2019-03-21T10:03:05.144Z,3.60
2019-03-21T10:05:34.674Z,3.80
2019-03-21T10:08:04.666Z,3.43
2019-03-21T10:10:35.446Z,3.57
2019-03-21T10:13:05.788Z,3.80
2019-03-21T10:15:35.358Z,3.63
2019-03-21T10:18:05.302Z,3.47
2019-03-21T10:20:34.807Z,3.37
2019-03-21T10:23:04.413Z,3.47
2019-03-21T10:25:33.961Z,3.77
2019-03-21T10:28:03.706Z,3.43
2019-03-21T10:30:43.166Z,3.83
2019-03-21T10:33:14.260Z,3.67
2019-03-21T10:35:43.826Z,4.80
2019-03-21T10:38:13.436Z,4.60
2019-03-21T10:40:42.914Z,4.10
2019-03-21T10:43:12.491Z,4.07
2019-03-21T10:45:41.976Z,4.73
2019-03-21T10:48:11.511Z,4.30
2019-03-21T10:50:42.083Z,3.87
2019-03-21T10:53:11.633Z,3.63
2019-03-21T10:55:41.375Z,3.70
2019-03-21T10:58:11.083Z,3.40
2019-03-21T11:00:40.755Z,4.20
2019-03-21T11:03:10.537Z,3.27
2019-03-21T11:05:40.178Z,2.93
2019-03-21T11:08:09.673Z,3.03
2019-03-21T11:10:39.231Z,3.30
2019-03-21T11:13:08.891Z,3.17
2019-03-21T11:15:38.512Z,2.97
2019-03-21T11:18:08.094Z,3.97
2019-03-21T11:20:40.013Z,3.80
2019-03-21T11:23:10.021Z,3.33
2019-03-21T11:25:39.822Z,3.53
2019-03-21T11:28:10.879Z,2.87
2019-03-21T11:30:44.530Z,3.27
2019-03-21T11:33:14.095Z,2.77
2019-03-21T11:35:43.732Z,2.97
2019-03-21T11:38:13.305Z,2.97
2019-03-21T11:40:42.897Z,2.93
2019-03-21T11:43:12.617Z,2.77
2019-03-21T11:45:42.212Z,2.80
2019-03-21T11:48:11.694Z,2.53
2019-03-21T11:50:41.297Z,2.60
2019-03-21T11:53:10.770Z,2.50
2019-03-21T11:55:40.298Z,2.40
2019-03-21T11:58:09.748Z,4.60
2019-03-21T12:00:44.146Z,3.97
2019-03-21T12:03:12.410Z,3.00
2019-03-21T12:05:42.017Z,2.83
2019-03-21T12:08:11.510Z,2.50
2019-03-21T12:10:41.177Z,2.33
2019-03-21T12:13:10.668Z,2.43
2019-03-21T12:15:40.190Z,2.23
2019-03-21T12:18:09.725Z,2.40
2019-03-21T12:20:39.316Z,2.80
2019-03-21T12:23:08.837Z,2.23
2019-03-21T12:25:38.340Z,2.40
2019-03-21T12:28:07.814Z,2.20
2019-03-21T12:30:40.989Z,2.50
2019-03-21T12:33:10.638Z,2.20
2019-03-21T12:35:40.177Z,2.07
2019-03-21T12:38:09.927Z,2.30
2019-03-21T12:40:39.480Z,2.17
2019-03-21T12:43:09.028Z,2.23
2019-03-21T12:45:40.316Z,2.37
2019-03-21T12:48:09.877Z,2.10
2019-03-21T12:50:39.375Z,1.93
2019-03-21T12:53:08.831Z,2.37
2019-03-21T12:55:38.389Z,2.20
2019-03-21T12:58:09.652Z,3.03
2019-03-21T13:00:41.008Z,2.40
2019-03-21T13:03:10.622Z,2.60
2019-03-21T13:05:41.818Z,2.27
2019-03-21T13:08:11.355Z,2.43
2019-03-21T13:10:41.081Z,2.40
2019-03-21T13:13:10.729Z,2.20
2019-03-21T13:15:40.662Z,2.13
2019-03-21T13:18:12.004Z,2.20
2019-03-21T13:20:41.519Z,2.60
2019-03-21T13:23:11.126Z,2.20
2019-03-21T13:25:40.709Z,2.23
2019-03-21T13:28:10.263Z,2.13
2019-03-21T13:30:39.759Z,2.23
2019-03-21T13:33:09.223Z,2.40
2019-03-21T13:35:41.548Z,2.30
2019-03-21T13:38:30.454Z,2.37
2019-03-21T13:41:00.012Z,2.63
2019-03-21T13:43:29.501Z,2.30
2019-03-21T13:45:59.023Z,2.60
2019-03-21T13:48:28.531Z,2.60
2019-03-21T13:51:01.115Z,2.60
2019-03-21T13:53:30.668Z,2.17
2019-03-21T13:56:00.136Z,1.97
2019-03-21T13:58:29.645Z,2.27
2019-03-21T14:00:59.239Z,2.50
2019-03-21T14:03:28.735Z,2.37
2019-03-21T14:05:58.264Z,2.60
2019-03-21T14:08:27.724Z,2.60
2019-03-21T14:10:57.223Z,2.60
2019-03-21T14:13:26.755Z,3.07
2019-03-21T14:15:57.968Z,2.60
2019-03-21T14:18:27.673Z,2.33
2019-03-21T14:20:57.144Z,3.10
2019-03-21T14:23:26.716Z,2.90
2019-03-21T14:25:56.219Z,2.60
2019-03-21T14:28:25.745Z,2.30
2019-03-21T14:30:55.293Z,2.47
2019-03-21T14:33:24.757Z,2.40
2019-03-21T14:35:54.265Z,2.73
2019-03-21T14:38:26.431Z,2.10
2019-03-21T14:40:54.978Z,2.10
2019-03-21T14:43:24.472Z,2.10
2019-03-21T14:45:54.075Z,2.50
2019-03-21T14:48:23.602Z,2.83
2019-03-21T14:50:53.193Z,2.53
2019-03-21T14:53:28.895Z,2.10
2019-03-21T14:55:53.925Z,2.27
2019-03-21T14:58:23.475Z,2.33
2019-03-21T15:00:53.151Z,2.17
2019-03-21T15:03:22.675Z,2.40
2019-03-21T15:05:52.158Z,2.13
2019-03-21T15:08:21.761Z,2.17
2019-03-21T15:10:51.266Z,2.20
2019-03-21T15:13:20.767Z,2.50
2019-03-21T15:15:50.229Z,2.47
2019-03-21T15:18:19.723Z,2.57
2019-03-21T15:20:49.285Z,2.40
2019-03-21T15:23:18.774Z,2.67
2019-03-21T15:25:48.393Z,2.63
2019-03-21T15:28:18.026Z,2.43
2019-03-21T15:30:47.673Z,2.57
2019-03-21T15:33:17.203Z,2.67
2019-03-21T15:35:46.730Z,2.57
2019-03-21T15:38:16.241Z,2.50
2019-03-21T15:40:45.724Z,2.87
2019-03-21T15:43:15.298Z,2.63
2019-03-21T15:45:44.881Z,2.90
2019-03-21T15:48:14.347Z,2.63
2019-03-21T15:50:43.912Z,2.10
2019-03-21T15:53:13.391Z,2.47
2019-03-21T15:55:42.918Z,2.33
2019-03-21T15:58:12.444Z,2.37
2019-03-21T16:00:43.519Z,2.37
2019-03-21T16:03:13.856Z,2.00
2019-03-21T16:05:43.872Z,2.30
2019-03-21T16:08:13.504Z,2.27
2019-03-21T16:10:43.064Z,2.33
2019-03-21T16:13:12.626Z,2.50
2019-03-21T16:15:42.218Z,2.37
2019-03-21T16:18:13.318Z,2.30
2019-03-21T16:20:42.826Z,2.07
2019-03-21T16:23:12.341Z,2.60
2019-03-21T16:25:41.836Z,2.10
2019-03-21T16:28:11.307Z,2.00
2019-03-21T16:30:40.891Z,2.17
2019-03-21T16:33:10.380Z,2.17
2019-03-21T16:35:39.903Z,2.17
2019-03-21T16:38:09.358Z,1.97
2019-03-21T16:40:38.859Z,2.23
2019-03-21T16:43:08.349Z,2.23
2019-03-21T16:45:37.837Z,1.80
2019-03-21T16:48:09.186Z,2.33
2019-03-21T16:50:38.572Z,2.00
2019-03-21T16:53:08.064Z,2.53
2019-03-21T16:55:37.521Z,2.63
2019-03-21T16:58:07.098Z,3.90
2019-03-21T17:00:37.476Z,4.03
2019-03-21T17:03:06.963Z,4.70
2019-03-21T17:05:36.468Z,4.80
2019-03-21T17:08:11.148Z,4.43
2019-03-21T17:10:37.274Z,4.90
2019-03-21T17:13:07.466Z,5.07
2019-03-21T17:15:37.308Z,6.27
2019-03-21T17:18:06.862Z,6.57
2019-03-21T17:20:36.496Z,6.37
2019-03-21T17:23:06.336Z,5.87
2019-03-21T17:25:35.810Z,6.50
2019-03-21T17:28:05.561Z,7.00
2019-03-21T17:30:35.031Z,6.70
2019-03-21T17:33:04.820Z,6.97
2019-03-21T17:35:34.279Z,6.93
2019-03-21T17:38:03.898Z,5.90
2019-03-21T17:40:33.429Z,6.23
2019-03-21T17:43:02.928Z,5.43
2019-03-21T17:45:32.450Z,4.93
2019-03-21T17:48:01.919Z,4.23
2019-03-21T17:50:33.482Z,4.47
2019-03-21T17:53:02.759Z,4.97
2019-03-21T17:55:33.996Z,4.50
2019-03-21T17:58:03.452Z,4.53
2019-03-21T18:00:37.087Z,4.83
2019-03-21T18:03:07.034Z,3.93
2019-03-21T18:05:36.581Z,4.73
2019-03-21T18:08:06.322Z,4.20
2019-03-21T18:10:36.003Z,4.53
2019-03-21T18:13:06.540Z,5.10
2019-03-21T18:15:36.162Z,4.67
2019-03-21T18:18:06.122Z,4.87
2019-03-21T18:20:35.595Z,5.43
2019-03-21T18:23:05.258Z,4.17
2019-03-21T18:25:34.801Z,4.60
2019-03-21T18:28:04.347Z,4.97
2019-03-21T18:30:33.994Z,4.63
2019-03-21T18:33:03.746Z,4.80
2019-03-21T18:35:33.352Z,4.70
2019-03-21T18:38:03.437Z,4.33
2019-03-21T18:40:32.915Z,5.17
2019-03-21T18:43:02.451Z,5.20
2019-03-21T18:45:31.920Z,5.20
2019-03-21T18:48:01.422Z,4.90
2019-03-21T18:50:31.013Z,4.97
2019-03-21T18:53:00.518Z,5.07
2019-03-21T18:55:30.016Z,5.33
2019-03-21T18:57:59.479Z,4.80
2019-03-21T19:00:29.002Z,4.80
2019-03-21T19:03:00.646Z,4.20
2019-03-21T19:05:29.830Z,4.10
2019-03-21T19:07:59.361Z,4.53
2019-03-21T19:10:28.909Z,4.13
2019-03-21T19:12:58.566Z,4.70
2019-03-21T19:15:28.078Z,5.47
2019-03-21T19:17:57.560Z,4.90
2019-03-21T19:20:27.116Z,5.10
2019-03-21T19:22:56.653Z,5.17
2019-03-21T19:25:26.273Z,5.03
2019-03-21T19:27:55.783Z,4.87
2019-03-21T19:30:25.444Z,5.40
2019-03-21T19:32:55.088Z,5.00
2019-03-21T19:35:24.651Z,5.97
2019-03-21T19:37:54.274Z,5.63
2019-03-21T19:40:23.849Z,5.20
2019-03-21T19:42:53.342Z,5.77
2019-03-21T19:45:22.917Z,5.40
2019-03-21T19:47:52.575Z,5.30
2019-03-21T19:50:22.949Z,5.60
2019-03-21T19:52:52.527Z,4.97
2019-03-21T19:55:30.739Z,5.47
2019-03-21T19:57:53.195Z,5.70
2019-03-21T20:00:24.697Z,5.57
2019-03-21T20:02:54.246Z,5.20
2019-03-21T20:05:23.844Z,4.70
2019-03-21T20:07:53.307Z,5.60
2019-03-21T20:10:23.619Z,4.93
2019-03-21T20:12:53.291Z,4.70
2019-03-21T20:15:22.824Z,5.37
2019-03-21T20:17:52.503Z,4.80
2019-03-21T20:20:22.243Z,5.63
2019-03-21T20:22:51.834Z,5.53
2019-03-21T20:25:21.629Z,5.93
2019-03-21T20:27:51.189Z,5.47
2019-03-21T20:30:24.003Z,5.57
2019-03-21T20:32:53.611Z,5.43
2019-03-21T20:35:23.268Z,6.07
2019-03-21T20:37:52.766Z,5.00
2019-03-21T20:40:22.336Z,5.10
2019-03-21T20:42:51.853Z,5.50
2019-03-21T20:45:22.071Z,5.47
2019-03-21T20:47:53.252Z,5.63
2019-03-21T20:50:23.106Z,4.93
2019-03-21T20:52:52.644Z,5.17
2019-03-21T20:55:22.225Z,4.93
2019-03-21T20:57:51.884Z,6.17
2019-03-21T21:00:24.052Z,4.53
2019-03-21T21:02:54.492Z,4.50
2019-03-21T21:05:24.186Z,5.40
2019-03-21T21:07:53.691Z,4.70
2019-03-21T21:10:23.151Z,4.83
2019-03-21T21:12:52.721Z,4.93
2019-03-21T21:15:25.120Z,4.40
2019-03-21T21:17:54.712Z,4.40
2019-03-21T21:20:24.407Z,4.63
2019-03-21T21:22:53.934Z,4.77
2019-03-21T21:25:23.408Z,4.50
2019-03-21T21:27:52.999Z,4.73
2019-03-21T21:30:23.304Z,5.00
2019-03-21T21:32:52.877Z,5.27
2019-03-21T21:35:22.373Z,4.80
2019-03-21T21:37:51.919Z,5.50
2019-03-21T21:40:21.564Z,5.80
2019-03-21T21:42:51.062Z,5.67
2019-03-21T21:45:20.695Z,5.10
2019-03-21T21:47:50.176Z,5.53
2019-03-21T21:50:19.808Z,6.07
2019-03-21T21:52:49.286Z,5.83
2019-03-21T21:55:18.779Z,5.13
2019-03-21T21:57:48.286Z,5.07
2019-03-21T22:00:24.344Z,4.87
2019-03-21T22:02:53.827Z,5.37
2019-03-21T22:05:23.395Z,5.87
2019-03-21T22:07:52.884Z,6.30
2019-03-21T22:10:24.630Z,6.77
2019-03-21T22:12:54.101Z,5.77
2019-03-21T22:15:25.285Z,7.43
2019-03-21T22:17:54.800Z,5.70
2019-03-21T22:20:24.271Z,5.53
2019-03-21T22:22:54.006Z,5.87
2019-03-21T22:25:23.515Z,5.50
2019-03-21T22:27:53.011Z,5.27
2019-03-21T22:30:22.612Z,4.90
2019-03-21T22:32:52.101Z,4.70
2019-03-21T22:35:21.645Z,4.73
2019-03-21T22:37:51.189Z,4.07
2019-03-21T22:40:22.191Z,4.07
2019-03-21T22:42:53.167Z,3.33
2019-03-21T22:45:25.158Z,3.23
2019-03-21T22:47:55.370Z,4.50
2019-03-21T22:50:24.900Z,3.57
2019-03-21T22:52:54.349Z,3.37
2019-03-21T22:55:23.858Z,3.33
2019-03-21T22:57:53.355Z,4.03
2019-03-21T23:00:25.369Z,3.23
2019-03-21T23:02:54.971Z,3.33
2019-03-21T23:05:26.063Z,3.30
2019-03-21T23:07:55.668Z,3.60
2019-03-21T23:10:25.173Z,3.43
2019-03-21T23:12:54.638Z,3.40
2019-03-21T23:15:24.232Z,3.17
2019-03-21T23:17:53.707Z,3.40
2019-03-21T23:20:23.306Z,3.97
2019-03-21T23:22:52.849Z,4.17
2019-03-21T23:25:22.307Z,4.10
2019-03-21T23:27:51.805Z,4.00
2019-03-21T23:30:21.400Z,4.30
2019-03-21T23:32:50.888Z,4.70
2019-03-21T23:35:20.364Z,4.67
2019-03-21T23:37:49.851Z,4.40
2019-03-21T23:40:19.509Z,4.97
2019-03-21T23:42:49.074Z,4.90
2019-03-21T23:45:19.955Z,4.97
2019-03-21T23:47:49.685Z,5.13
2019-03-21T23:50:19.754Z,5.63
2019-03-21T23:52:52.007Z,5.40
2019-03-21T23:55:21.492Z,6.30
2019-03-21T23:57:50.946Z,5.77
